La Coruna, Spain
Current Conditions -  °F | °C
As of 3:30 PM on Sunday 25 Jan 2015 (Local Time) from LECO Reporting Station
Clear Clear  
Wind Chill: 54°   Ceiling: Unl
Heat Index: 54°   Visibility: 6mi
Dew Point: 45°   Wind: 3mph
Humidity: 72%   Direction: 330°NNW
Pressure: 30.48"   Gusts: NA
Location:  43.37°N, 8.4°W
Report Text: LECO 251430Z 33003KT 280V010 CAVOK 12/07 Q1032 NOSIG
Loading
Personal Weather Stations






























Interactive Weather Map New forecast layout! Learn more

10-Day Weather Forecast

Advertisements
Track Severe Weather on mobile